sensor_id;sensor_type;location;lat;lon;timestamp;pressure;altitude;pressure_sealevel;temperature;humidity
21203;BME280;10759;51.982;9.232;2023-05-01T00:01:12;100605.81;;;5.67;86.57
21203;BME280;10759;51.982;9.232;2023-05-01T00:03:40;100732.41;;;6.43;86.53
21203;BME280;10759;51.982;9.232;2023-05-01T00:06:08;100694.53;;;6.24;86.77
21203;BME280;10759;51.982;9.232;2023-05-01T00:08:36;100726.28;;;6.40;86.78
21203;BME280;10759;51.982;9.232;2023-05-01T00:11:05;100691.06;;;6.19;86.48
21203;BME280;10759;51.982;9.232;2023-05-01T00:13:35;100715.56;;;6.43;86.53
21203;BME280;10759;51.982;9.232;2023-05-01T00:16:07;100721.84;;;6.37;86.23
21203;BME280;10759;51.982;9.232;2023-05-01T00:18:36;100721.06;;;6.31;86.38
21203;BME280;10759;51.982;9.232;2023-05-01T00:21:05;100588.25;;;5.55;86.26
21203;BME280;10759;51.982;9.232;2023-05-01T00:23:32;100705.19;;;6.24;86.34
21203;BME280;10759;51.982;9.232;2023-05-01T00:26:00;100671.91;;;5.96;86.97
21203;BME280;10759;51.982;9.232;2023-05-01T00:28:28;100712.22;;;6.27;86.88
21203;BME280;10759;51.982;9.232;2023-05-01T00:30:56;100655.06;;;5.92;86.83
21203;BME280;10759;51.982;9.232;2023-05-01T00:33:24;100704.38;;;6.21;86.70
21203;BME280;10759;51.982;9.232;2023-05-01T00:35:54;100689.94;;;6.36;86.49
21203;BME280;10759;51.982;9.232;2023-05-01T00:38:22;100698.81;;;6.35;86.29
21203;BME280;10759;51.982;9.232;2023-05-01T00:40:50;100696.06;;;6.39;85.83
21203;BME280;10759;51.982;9.232;2023-05-01T00:43:18;100669.78;;;6.19;86.36
21203;BME280;10759;51.982;9.232;2023-05-01T00:45:46;100663.78;;;6.05;86.51
21203;BME280;10759;51.982;9.232;2023-05-01T00:48:14;100659.44;;;5.98;87.24
21203;BME280;10759;51.982;9.232;2023-05-01T00:50:43;100582.97;;;5.50;87.59
21203;BME280;10759;51.982;9.232;2023-05-01T00:53:13;100677.13;;;6.02;87.55
21203;BME280;10759;51.982;9.232;2023-05-01T00:55:41;100647.31;;;5.75;88.03
21203;BME280;10759;51.982;9.232;2023-05-01T00:58:10;100563.88;;;5.21;88.36
21203;BME280;10759;51.982;9.232;2023-05-01T01:00:38;100670.31;;;5.79;88.56
21203;BME280;10759;51.982;9.232;2023-05-01T01:03:06;100510.41;;;4.79;89.02
21203;BME280;10759;51.982;9.232;2023-05-01T01:05:37;100663.66;;;5.48;88.15
21203;BME280;10759;51.982;9.232;2023-05-01T01:08:25;100656.59;;;5.45;90.01
21203;BME280;10759;51.982;9.232;2023-05-01T01:11:03;100639.88;;;5.34;90.92
21203;BME280;10759;51.982;9.232;2023-05-01T01:13:38;100605.44;;;5.29;91.03
21203;BME280;10759;51.982;9.232;2023-05-01T01:16:15;100650.22;;;5.58;90.83
21203;BME280;10759;51.982;9.232;2023-05-01T01:18:50;100589.53;;;5.23;90.39
21203;BME280;10759;51.982;9.232;2023-05-01T01:21:23;100645.78;;;5.59;90.21
21203;BME280;10759;51.982;9.232;2023-05-01T01:24:20;100642.06;;;5.72;89.07
21203;BME280;10759;51.982;9.232;2023-05-01T01:27:22;100639.50;;;5.66;89.50
21203;BME280;10759;51.982;9.232;2023-05-01T01:30:23;100632.41;;;5.65;89.02
21203;BME280;10759;51.982;9.232;2023-05-01T01:33:10;100635.97;;;5.64;89.13
21203;BME280;10759;51.982;9.232;2023-05-01T01:35:52;100634.13;;;5.68;88.68
21203;BME280;10759;51.982;9.232;2023-05-01T01:38:26;100628.75;;;5.72;88.62
21203;BME280;10759;51.982;9.232;2023-05-01T01:40:58;100620.97;;;5.58;89.50
21203;BME280;10759;51.982;9.232;2023-05-01T01:43:32;100621.88;;;5.56;90.01
21203;BME280;10759;51.982;9.232;2023-05-01T01:46:04;100615.59;;;5.63;89.16
21203;BME280;10759;51.982;9.232;2023-05-01T01:48:36;100612.22;;;5.52;89.26
21203;BME280;10759;51.982;9.232;2023-05-01T01:51:12;100590.19;;;5.41;89.22
21203;BME280;10759;51.982;9.232;2023-05-01T01:53:45;100605.16;;;5.48;89.77
21203;BME280;10759;51.982;9.232;2023-05-01T01:56:17;100601.84;;;5.30;90.63
21203;BME280;10759;51.982;9.232;2023-05-01T01:58:47;100561.34;;;5.14;90.51
21203;BME280;10759;51.982;9.232;2023-05-01T02:01:18;100598.22;;;5.37;90.58
21203;BME280;10759;51.982;9.232;2023-05-01T02:03:48;100580.69;;;5.24;91.06
21203;BME280;10759;51.982;9.232;2023-05-01T02:06:18;100595.72;;;5.27;90.74
21203;BME280;10759;51.982;9.232;2023-05-01T02:08:46;100586.00;;;5.24;91.21
21203;BME280;10759;51.982;9.232;2023-05-01T02:11:18;100529.81;;;4.85;90.84
21203;BME280;10759;51.982;9.232;2023-05-01T02:13:48;100588.72;;;5.16;91.06
21203;BME280;10759;51.982;9.232;2023-05-01T02:16:17;100576.31;;;5.20;91.41
21203;BME280;10759;51.982;9.232;2023-05-01T02:18:48;100571.03;;;5.15;91.04
21203;BME280;10759;51.982;9.232;2023-05-01T02:21:19;100577.19;;;5.19;91.71
21203;BME280;10759;51.982;9.232;2023-05-01T02:23:48;100577.19;;;5.19;91.00
21203;BME280;10759;51.982;9.232;2023-05-01T02:26:17;100577.28;;;5.14;91.19
21203;BME280;10759;51.982;9.232;2023-05-01T02:28:47;100578.19;;;5.10;91.26
21203;BME280;10759;51.982;9.232;2023-05-01T02:31:16;100569.31;;;5.14;91.58
21203;BME280;10759;51.982;9.232;2023-05-01T02:33:44;100572.78;;;5.16;91.84
21203;BME280;10759;51.982;9.232;2023-05-01T02:36:12;100567.53;;;5.13;91.56
21203;BME280;10759;51.982;9.232;2023-05-01T02:38:42;100522.50;;;5.03;90.92
21203;BME280;10759;51.982;9.232;2023-05-01T02:41:14;100559.44;;;5.24;91.44
21203;BME280;10759;51.982;9.232;2023-05-01T02:43:42;100532.94;;;5.18;91.41
21203;BME280;10759;51.982;9.232;2023-05-01T02:46:13;100557.72;;;5.20;91.31
21203;BME280;10759;51.982;9.232;2023-05-01T02:48:44;100541.00;;;5.10;91.56
21203;BME280;10759;51.982;9.232;2023-05-01T02:51:13;100553.38;;;5.14;92.17
21203;BME280;10759;51.982;9.232;2023-05-01T02:53:42;100552.44;;;5.17;91.57
21203;BME280;10759;51.982;9.232;2023-05-01T02:56:18;100529.69;;;4.94;91.74
21203;BME280;10759;51.982;9.232;2023-05-01T02:58:46;100529.66;;;4.98;91.51
21203;BME280;10759;51.982;9.232;2023-05-01T03:01:14;100534.81;;;5.10;91.59
21203;BME280;10759;51.982;9.232;2023-05-01T03:03:43;100543.56;;;5.16;91.34
21203;BME280;10759;51.982;9.232;2023-05-01T03:06:12;100525.22;;;5.00;91.41
21203;BME280;10759;51.982;9.232;2023-05-01T03:08:42;100525.28;;;4.93;92.10
21203;BME280;10759;51.982;9.232;2023-05-01T03:11:09;100487.44;;;4.76;92.24
21203;BME280;10759;51.982;9.232;2023-05-01T03:13:37;100521.84;;;4.84;92.19
21203;BME280;10759;51.982;9.232;2023-05-01T03:16:06;100480.44;;;4.69;91.82
21203;BME280;10759;51.982;9.232;2023-05-01T03:18:34;100492.75;;;4.78;92.06
21203;BME280;10759;51.982;9.232;2023-05-01T03:21:02;100450.44;;;4.62;91.59
21203;BME280;10759;51.982;9.232;2023-05-01T03:23:30;100491.72;;;4.86;92.10
21203;BME280;10759;51.982;9.232;2023-05-01T03:25:59;100480.69;;;4.47;93.09
21203;BME280;10759;51.982;9.232;2023-05-01T03:28:27;100500.84;;;4.64;93.02
21203;BME280;10759;51.982;9.232;2023-05-01T03:30:55;100474.16;;;4.78;93.17
21203;BME280;10759;51.982;9.232;2023-05-01T03:33:23;100474.97;;;4.81;92.71
21203;BME280;10759;51.982;9.232;2023-05-01T03:35:58;100491.63;;;4.95;92.06
21203;BME280;10759;51.982;9.232;2023-05-01T03:38:28;100503.16;;;4.91;91.97
21203;BME280;10759;51.982;9.232;2023-05-01T03:41:17;100487.16;;;4.98;92.36
21203;BME280;10759;51.982;9.232;2023-05-01T03:44:03;100488.09;;;4.92;92.23
21203;BME280;10759;51.982;9.232;2023-05-01T03:46:36;100470.31;;;4.99;91.57
21203;BME280;10759;51.982;9.232;2023-05-01T03:49:06;100488.97;;;4.94;91.61
21203;BME280;10759;51.982;9.232;2023-05-01T03:51:41;100466.16;;;4.79;92.79
21203;BME280;10759;51.982;9.232;2023-05-01T03:54:09;100372.03;;;4.38;92.75
21203;BME280;10759;51.982;9.232;2023-05-01T03:56:54;100482.84;;;4.89;92.34
21203;BME280;10759;51.982;9.232;2023-05-01T03:59:22;100468.75;;;4.84;92.98
21203;BME280;10759;51.982;9.232;2023-05-01T04:01:50;100471.56;;;4.73;93.55
21203;BME280;10759;51.982;9.232;2023-05-01T04:04:19;100472.38;;;4.77;93.62
21203;BME280;10759;51.982;9.232;2023-05-01T04:06:54;100475.78;;;4.86;93.55
21203;BME280;10759;51.982;9.232;2023-05-01T04:09:22;100466.78;;;4.98;92.86
21203;BME280;10759;51.982;9.232;2023-05-01T04:11:50;100468.47;;;5.05;92.32
21203;BME280;10759;51.982;9.232;2023-05-01T04:14:19;100462.22;;;5.08;91.42
21203;BME280;10759;51.982;9.232;2023-05-01T04:16:48;100472.84;;;5.08;91.58
21203;BME280;10759;51.982;9.232;2023-05-01T04:19:17;100473.66;;;5.14;91.39
21203;BME280;10759;51.982;9.232;2023-05-01T04:21:49;100470.31;;;4.99;91.42
21203;BME280;10759;51.982;9.232;2023-05-01T04:24:18;100450.06;;;4.91;91.87
21203;BME280;10759;51.982;9.232;2023-05-01T04:26:45;100452.59;;;4.99;92.16
21203;BME280;10759;51.982;9.232;2023-05-01T04:29:13;100468.34;;;5.14;91.24
21203;BME280;10759;51.982;9.232;2023-05-01T04:31:43;100466.63;;;5.10;91.29
21203;BME280;10759;51.982;9.232;2023-05-01T04:34:11;100468.28;;;5.18;91.13
21203;BME280;10759;51.982;9.232;2023-05-01T04:36:39;100463.78;;;5.24;91.19
21203;BME280;10759;51.982;9.232;2023-05-01T04:39:07;100469.03;;;5.27;90.88
21203;BME280;10759;51.982;9.232;2023-05-01T04:41:35;100468.84;;;5.40;91.17
21203;BME280;10759;51.982;9.232;2023-05-01T04:44:04;100454.59;;;5.44;90.99
21203;BME280;10759;51.982;9.232;2023-05-01T04:46:32;100458.34;;;5.32;91.12
21203;BME280;10759;51.982;9.232;2023-05-01T04:49:01;100424.06;;;5.15;91.77
21203;BME280;10759;51.982;9.232;2023-05-01T04:51:29;100410.72;;;5.18;91.65
21203;BME280;10759;51.982;9.232;2023-05-01T04:53:57;100445.53;;;5.57;91.96
21203;BME280;10759;51.982;9.232;2023-05-01T04:56:26;100449.66;;;5.76;91.31
21203;BME280;10759;51.982;9.232;2023-05-01T04:58:59;100449.47;;;5.86;90.66
21203;BME280;10759;51.982;9.232;2023-05-01T05:01:28;100408.97;;;5.70;89.01
21203;BME280;10759;51.982;9.232;2023-05-01T05:03:57;100455.13;;;6.18;88.17
21203;BME280;10759;51.982;9.232;2023-05-01T05:06:27;100448.53;;;5.90;88.43
21203;BME280;10759;51.982;9.232;2023-05-01T05:08:55;100450.53;;;5.77;89.97
21203;BME280;10759;51.982;9.232;2023-05-01T05:11:24;100399.19;;;5.19;91.67
21203;BME280;10759;51.982;9.232;2023-05-01T05:14:03;100448.88;;;5.68;91.02
21203;BME280;10759;51.982;9.232;2023-05-01T05:16:31;100437.34;;;5.69;91.99
21203;BME280;10759;51.982;9.232;2023-05-01T05:19:00;100444.13;;;5.89;91.02
21203;BME280;10759;51.982;9.232;2023-05-01T05:21:35;100426.44;;;5.86;90.54
21203;BME280;10759;51.982;9.232;2023-05-01T05:24:03;100448.53;;;5.90;91.22
21203;BME280;10759;51.982;9.232;2023-05-01T05:26:31;100455.53;;;5.97;91.34
21203;BME280;10759;51.982;9.232;2023-05-01T05:29:02;100410.22;;;6.01;89.89
21203;BME280;10759;51.982;9.232;2023-05-01T05:31:30;100429.97;;;6.35;88.74
21203;BME280;10759;51.982;9.232;2023-05-01T05:33:58;100449.22;;;6.49;88.72
21203;BME280;10759;51.982;9.232;2023-05-01T05:36:27;100440.53;;;6.39;88.25
21203;BME280;10759;51.982;9.232;2023-05-01T05:38:58;100453.66;;;6.50;88.48
21203;BME280;10759;51.982;9.232;2023-05-01T05:41:26;100389.91;;;6.42;87.24
21203;BME280;10759;51.982;9.232;2023-05-01T05:43:58;100437.78;;;6.86;88.75
21203;BME280;10759;51.982;9.232;2023-05-01T05:46:26;100433.25;;;7.30;86.08
21203;BME280;10759;51.982;9.232;2023-05-01T05:48:54;100431.97;;;7.46;83.59
21203;BME280;10759;51.982;9.232;2023-05-01T05:51:24;100438.94;;;7.15;84.19
21203;BME280;10759;51.982;9.232;2023-05-01T05:53:52;100424.66;;;7.17;85.03
21203;BME280;10759;51.982;9.232;2023-05-01T05:56:21;100384.50;;;6.86;85.25
21203;BME280;10759;51.982;9.232;2023-05-01T05:58:50;100334.84;;;6.83;85.26
21203;BME280;10759;51.982;9.232;2023-05-01T06:01:18;100314.44;;;7.20;85.06
21203;BME280;10759;51.982;9.232;2023-05-01T06:03:46;100418.69;;;8.12;83.18
21203;BME280;10759;51.982;9.232;2023-05-01T06:06:15;100415.31;;;8.38;81.33
21203;BME280;10759;51.982;9.232;2023-05-01T06:08:43;100375.38;;;8.35;79.62
21203;BME280;10759;51.982;9.232;2023-05-01T06:11:12;100419.88;;;8.34;79.34
21203;BME280;10759;51.982;9.232;2023-05-01T06:13:41;100417.28;;;8.00;84.26
21203;BME280;10759;51.982;9.232;2023-05-01T06:16:09;100402.88;;;8.06;82.63
21203;BME280;10759;51.982;9.232;2023-05-01T06:18:37;100363.38;;;8.17;81.09
21203;BME280;10759;51.982;9.232;2023-05-01T06:21:05;100409.66;;;8.81;80.00
21203;BME280;10759;51.982;9.232;2023-05-01T06:23:34;100412.47;;;9.05;77.90
21203;BME280;10759;51.982;9.232;2023-05-01T06:26:20;100400.41;;;9.48;77.57
21203;BME280;10759;51.982;9.232;2023-05-01T06:28:50;100402.19;;;9.74;78.02
21203;BME280;10759;51.982;9.232;2023-05-01T06:31:18;100385.13;;;8.97;80.87
21203;BME280;10759;51.982;9.232;2023-05-01T06:33:50;100368.50;;;9.42;78.74
21203;BME280;10759;51.982;9.232;2023-05-01T06:36:25;100387.03;;;9.48;77.78
21203;BME280;10759;51.982;9.232;2023-05-01T06:38:54;100406.53;;;10.03;77.01
21203;BME280;10759;51.982;9.232;2023-05-01T06:41:23;100374.13;;;9.86;76.69
21203;BME280;10759;51.982;9.232;2023-05-01T06:43:53;100403.72;;;10.33;76.11
21203;BME280;10759;51.982;9.232;2023-05-01T06:46:21;100402.19;;;10.51;74.10
21203;BME280;10759;51.982;9.232;2023-05-01T06:48:49;100388.81;;;10.73;73.13
21203;BME280;10759;51.982;9.232;2023-05-01T06:51:17;100381.63;;;10.51;71.95
21203;BME280;10759;51.982;9.232;2023-05-01T06:53:45;100391.91;;;10.62;71.52
21203;BME280;10759;51.982;9.232;2023-05-01T06:56:13;100393.63;;;10.88;70.11
21203;BME280;10759;51.982;9.232;2023-05-01T06:58:41;100380.16;;;11.12;69.63
21203;BME280;10759;51.982;9.232;2023-05-01T07:01:10;100391.53;;;11.41;66.32
21203;BME280;10759;51.982;9.232;2023-05-01T07:03:39;100394.56;;;11.53;67.82
21203;BME280;10759;51.982;9.232;2023-05-01T07:06:07;100390.25;;;11.49;63.86
21203;BME280;10759;51.982;9.232;2023-05-01T07:08:35;100384.84;;;11.71;60.15
21203;BME280;10759;51.982;9.232;2023-05-01T07:11:03;100379.59;;;11.90;60.93
21203;BME280;10759;51.982;9.232;2023-05-01T07:13:31;100388.56;;;12.11;58.90
21203;BME280;10759;51.982;9.232;2023-05-01T07:15:59;100362.34;;;11.96;56.79
21203;BME280;10759;51.982;9.232;2023-05-01T07:18:29;100375.78;;;12.16;57.98
21203;BME280;10759;51.982;9.232;2023-05-01T07:20:57;100369.31;;;12.41;61.55
21203;BME280;10759;51.982;9.232;2023-05-01T07:23:25;100372.50;;;12.49;57.63
21203;BME280;10759;51.982;9.232;2023-05-01T07:25:53;100370.50;;;12.92;58.99
21203;BME280;10759;51.982;9.232;2023-05-01T07:28:21;100361.75;;;13.06;59.56
21203;BME280;10759;51.982;9.232;2023-05-01T07:30:49;100364.53;;;13.04;54.69
21203;BME280;10759;51.982;9.232;2023-05-01T07:33:17;100223.88;;;12.47;54.39
21203;BME280;10759;51.982;9.232;2023-05-01T07:35:47;100358.94;;;13.45;54.81
21203;BME280;10759;51.982;9.232;2023-05-01T07:38:16;100352.88;;;13.59;52.94
21203;BME280;10759;51.982;9.232;2023-05-01T07:40:44;100352.94;;;13.75;56.95
21203;BME280;10759;51.982;9.232;2023-05-01T07:43:12;100355.00;;;13.87;53.32
21203;BME280;10759;51.982;9.232;2023-05-01T07:45:40;100352.78;;;13.61;53.05
21203;BME280;10759;51.982;9.232;2023-05-01T07:48:08;100325.22;;;13.38;55.92
21203;BME280;10759;51.982;9.232;2023-05-01T07:50:37;100357.56;;;14.08;53.72
21203;BME280;10759;51.982;9.232;2023-05-01T07:53:07;100356.94;;;14.36;52.46
21203;BME280;10759;51.982;9.232;2023-05-01T07:55:35;100351.66;;;14.17;51.17
21203;BME280;10759;51.982;9.232;2023-05-01T07:58:03;100345.25;;;14.53;50.93
21203;BME280;10759;51.982;9.232;2023-05-01T08:00:32;100334.25;;;14.73;49.88
21203;BME280;10759;51.982;9.232;2023-05-01T08:03:00;100304.47;;;14.59;47.34
21203;BME280;10759;51.982;9.232;2023-05-01T08:05:28;100335.66;;;14.80;48.27
21203;BME280;10759;51.982;9.232;2023-05-01T08:07:57;100334.06;;;15.08;50.77
21203;BME280;10759;51.982;9.232;2023-05-01T08:10:26;100335.56;;;15.14;47.22
21203;BME280;10759;51.982;9.232;2023-05-01T08:12:54;100334.78;;;15.12;47.35
21203;BME280;10759;51.982;9.232;2023-05-01T08:15:22;100335.66;;;15.12;47.70
21203;BME280;10759;51.982;9.232;2023-05-01T08:17:51;100273.50;;;14.98;48.65
21203;BME280;10759;51.982;9.232;2023-05-01T08:20:19;100330.75;;;15.65;49.35
21203;BME280;10759;51.982;9.232;2023-05-01T08:22:47;100326.19;;;15.81;48.22
21203;BME280;10759;51.982;9.232;2023-05-01T08:25:15;100332.16;;;16.02;47.37
21203;BME280;10759;51.982;9.232;2023-05-01T08:27:44;100332.13;;;16.17;49.54
21203;BME280;10759;51.982;9.232;2023-05-01T08:30:12;100328.66;;;16.29;48.93
21203;BME280;10759;51.982;9.232;2023-05-01T08:32:40;100317.09;;;16.13;45.78
21203;BME280;10759;51.982;9.232;2023-05-01T08:35:08;100295.28;;;16.16;45.34
21203;BME280;10759;51.982;9.232;2023-05-01T08:37:37;100307.25;;;16.26;45.40
21203;BME280;10759;51.982;9.232;2023-05-01T08:40:06;100273.44;;;16.19;46.42
21203;BME280;10759;51.982;9.232;2023-05-01T08:42:35;100310.16;;;16.37;46.44
21203;BME280;10759;51.982;9.232;2023-05-01T08:45:07;100314.09;;;16.46;44.50
21203;BME280;10759;51.982;9.232;2023-05-01T08:47:36;100289.66;;;16.33;46.15
21203;BME280;10759;51.982;9.232;2023-05-01T08:50:08;100304.13;;;16.75;47.85
21203;BME280;10759;51.982;9.232;2023-05-01T08:52:39;100201.22;;;16.21;48.70
21203;BME280;10759;51.982;9.232;2023-05-01T08:55:11;100303.97;;;17.05;45.14
21203;BME280;10759;51.982;9.232;2023-05-01T08:57:43;100282.69;;;16.72;46.78
21203;BME280;10759;51.982;9.232;2023-05-01T09:00:16;100299.28;;;16.94;45.05
21203;BME280;10759;51.982;9.232;2023-05-01T09:02:47;100291.41;;;17.04;44.43
21203;BME280;10759;51.982;9.232;2023-05-01T09:05:17;100287.34;;;17.11;45.71
21203;BME280;10759;51.982;9.232;2023-05-01T09:07:46;100300.31;;;17.33;45.46
21203;BME280;10759;51.982;9.232;2023-05-01T09:10:15;100259.66;;;16.93;44.13
21203;BME280;10759;51.982;9.232;2023-05-01T09:12:46;100242.47;;;16.80;44.49
21203;BME280;10759;51.982;9.232;2023-05-01T09:15:19;100288.28;;;17.37;45.73
21203;BME280;10759;51.982;9.232;2023-05-01T09:17:47;100283.34;;;17.57;45.73
21203;BME280;10759;51.982;9.232;2023-05-01T09:20:16;100275.72;;;17.36;45.54
21203;BME280;10759;51.982;9.232;2023-05-01T09:22:45;100288.63;;;17.46;46.34
21203;BME280;10759;51.982;9.232;2023-05-01T09:25:13;100247.75;;;16.96;43.79
21203;BME280;10759;51.982;9.232;2023-05-01T09:27:43;100234.09;;;16.98;46.25
21203;BME280;10759;51.982;9.232;2023-05-01T09:30:30;100279.44;;;17.48;46.30
21203;BME280;10759;51.982;9.232;2023-05-01T09:33:08;100232.28;;;17.38;46.14
21203;BME280;10759;51.982;9.232;2023-05-01T09:35:51;100279.38;;;17.63;45.71
21203;BME280;10759;51.982;9.232;2023-05-01T09:38:20;100269.94;;;17.68;46.16
21203;BME280;10759;51.982;9.232;2023-05-01T09:40:49;100240.75;;;17.46;44.51
21203;BME280;10759;51.982;9.232;2023-05-01T09:43:24;100268.75;;;17.32;45.26
21203;BME280;10759;51.982;9.232;2023-05-01T09:46:02;100257.16;;;17.57;44.63
21203;BME280;10759;51.982;9.232;2023-05-01T09:48:32;100176.38;;;17.37;44.88
21203;BME280;10759;51.982;9.232;2023-05-01T09:51:19;100260.03;;;17.94;45.43
21203;BME280;10759;51.982;9.232;2023-05-01T09:53:47;100269.66;;;18.11;44.40
21203;BME280;10759;51.982;9.232;2023-05-01T09:56:16;100265.84;;;18.01;46.12
21203;BME280;10759;51.982;9.232;2023-05-01T09:58:45;100259.81;;;17.85;44.89
21203;BME280;10759;51.982;9.232;2023-05-01T10:01:15;100257.09;;;17.85;45.09
21203;BME280;10759;51.982;9.232;2023-05-01T10:03:44;100213.50;;;17.88;45.68
21203;BME280;10759;51.982;9.232;2023-05-01T10:06:25;100238.44;;;17.80;44.97
21203;BME280;10759;51.982;9.232;2023-05-01T10:08:55;100250.47;;;18.14;46.72
21203;BME280;10759;51.982;9.232;2023-05-01T10:11:23;100249.91;;;18.35;46.14
21203;BME280;10759;51.982;9.232;2023-05-01T10:14:05;100237.28;;;18.47;47.35
21203;BME280;10759;51.982;9.232;2023-05-01T10:16:37;100211.81;;;18.36;44.25
21203;BME280;10759;51.982;9.232;2023-05-01T10:19:05;100239.88;;;18.61;43.44
21203;BME280;10759;51.982;9.232;2023-05-01T10:21:33;100235.34;;;18.36;44.55
21203;BME280;10759;51.982;9.232;2023-05-01T10:24:02;100245.50;;;18.58;45.50
21203;BME280;10759;51.982;9.232;2023-05-01T10:26:31;100239.88;;;18.61;45.54
21203;BME280;10759;51.982;9.232;2023-05-01T10:29:00;100240.38;;;18.79;44.57
21203;BME280;10759;51.982;9.232;2023-05-01T10:31:28;100237.56;;;18.80;44.67
21203;BME280;10759;51.982;9.232;2023-05-01T10:34:00;100237.25;;;18.59;44.75
21203;BME280;10759;51.982;9.232;2023-05-01T10:36:33;100232.22;;;18.79;45.15
21203;BME280;10759;51.982;9.232;2023-05-01T10:39:05;100226.84;;;18.90;45.13
21203;BME280;10759;51.982;9.232;2023-05-01T10:42:05;100225.72;;;18.69;43.94
21203;BME280;10759;51.982;9.232;2023-05-01T10:44:36;100171.09;;;18.49;42.52
21203;BME280;10759;51.982;9.232;2023-05-01T10:50:10;100222.13;;;18.81;42.76
21203;BME280;10759;51.982;9.232;2023-05-01T10:55:31;100215.31;;;18.62;41.92
21203;BME280;10759;51.982;9.232;2023-05-01T10:57:59;100214.88;;;18.69;41.06
21203;BME280;10759;51.982;9.232;2023-05-01T11:00:27;100195.56;;;18.23;41.75
21203;BME280;10759;51.982;9.232;2023-05-01T11:06:05;100125.59;;;18.29;44.07
21203;BME280;10759;51.982;9.232;2023-05-01T11:08:36;100204.94;;;19.04;42.13
21203;BME280;10759;51.982;9.232;2023-05-01T11:11:43;100188.97;;;18.88;43.44
21203;BME280;10759;51.982;9.232;2023-05-01T11:14:13;100187.00;;;18.91;41.38
21203;BME280;10759;51.982;9.232;2023-05-01T11:16:42;100171.25;;;18.96;38.59
21203;BME280;10759;51.982;9.232;2023-05-01T11:22:17;100155.91;;;18.71;39.36
21203;BME280;10759;51.982;9.232;2023-05-01T11:24:46;100169.13;;;18.88;41.09
21203;BME280;10759;51.982;9.232;2023-05-01T11:27:14;100179.06;;;19.12;41.00
21203;BME280;10759;51.982;9.232;2023-05-01T11:29:44;100165.31;;;19.02;40.20
21203;BME280;10759;51.982;9.232;2023-05-01T11:32:21;100173.94;;;19.31;42.31
21203;BME280;10759;51.982;9.232;2023-05-01T11:34:50;100180.78;;;19.48;41.90
21203;BME280;10759;51.982;9.232;2023-05-01T11:37:38;100173.09;;;19.77;40.73
21203;BME280;10759;51.982;9.232;2023-05-01T11:40:17;100170.97;;;19.81;41.20
21203;BME280;10759;51.982;9.232;2023-05-01T11:42:45;100134.22;;;19.52;42.38
21203;BME280;10759;51.982;9.232;2023-05-01T11:45:14;100163.69;;;19.70;37.60
21203;BME280;10759;51.982;9.232;2023-05-01T11:47:42;100127.19;;;19.61;39.62
21203;BME280;10759;51.982;9.232;2023-05-01T11:50:10;100161.22;;;19.78;38.47
21203;BME280;10759;51.982;9.232;2023-05-01T11:52:45;100153.81;;;19.80;38.94
21203;BME280;10759;51.982;9.232;2023-05-01T11:55:15;100153.31;;;19.86;37.91
21203;BME280;10759;51.982;9.232;2023-05-01T11:57:47;100166.53;;;19.80;38.29
21203;BME280;10759;51.982;9.232;2023-05-01T12:00:25;100164.56;;;19.93;38.84
21203;BME280;10759;51.982;9.232;2023-05-01T12:02:57;100165.41;;;19.71;40.11
21203;BME280;10759;51.982;9.232;2023-05-01T12:05:27;100160.47;;;19.87;39.10
21203;BME280;10759;51.982;9.232;2023-05-01T12:08:08;100163.94;;;19.78;37.96
21203;BME280;10759;51.982;9.232;2023-05-01T12:10:38;100167.72;;;19.64;38.25
21203;BME280;10759;51.982;9.232;2023-05-01T12:13:07;100169.66;;;19.51;37.74
21203;BME280;10759;51.982;9.232;2023-05-01T12:15:37;100165.63;;;19.57;38.11
21203;BME280;10759;51.982;9.232;2023-05-01T12:18:06;100143.22;;;19.42;38.02
21203;BME280;10759;51.982;9.232;2023-05-01T12:20:36;100161.06;;;19.57;38.54
21203;BME280;10759;51.982;9.232;2023-05-01T12:23:07;100155.94;;;19.41;39.74
21203;BME280;10759;51.982;9.232;2023-05-01T12:25:36;100136.63;;;19.22;39.25
21203;BME280;10759;51.982;9.232;2023-05-01T12:28:09;100162.22;;;19.42;38.79
21203;BME280;10759;51.982;9.232;2023-05-01T12:30:38;100105.00;;;19.09;38.17
21203;BME280;10759;51.982;9.232;2023-05-01T12:33:11;100161.38;;;19.30;38.34
21203;BME280;10759;51.982;9.232;2023-05-01T12:35:40;100150.59;;;19.28;38.26
21203;BME280;10759;51.982;9.232;2023-05-01T12:38:14;100150.66;;;19.40;38.54
21203;BME280;10759;51.982;9.232;2023-05-01T12:40:50;100133.84;;;19.35;39.81
21203;BME280;10759;51.982;9.232;2023-05-01T12:43:20;100155.06;;;19.41;38.32
21203;BME280;10759;51.982;9.232;2023-05-01T12:45:52;100156.84;;;19.53;38.10
21203;BME280;10759;51.982;9.232;2023-05-01T12:48:20;100105.34;;;19.05;39.12
21203;BME280;10759;51.982;9.232;2023-05-01T12:50:48;100149.16;;;19.36;38.12
21203;BME280;10759;51.982;9.232;2023-05-01T12:53:22;100086.06;;;18.85;38.30
21203;BME280;10759;51.982;9.232;2023-05-01T12:55:52;100142.69;;;19.25;37.83
21203;BME280;10759;51.982;9.232;2023-05-01T12:58:21;100136.41;;;19.25;38.12
21203;BME280;10759;51.982;9.232;2023-05-01T13:00:51;100018.47;;;18.58;37.95
21203;BME280;10759;51.982;9.232;2023-05-01T13:03:22;100050.44;;;19.01;37.67
21203;BME280;10759;51.982;9.232;2023-05-01T13:05:52;100123.13;;;19.56;37.74
21203;BME280;10759;51.982;9.232;2023-05-01T13:08:26;100125.84;;;19.67;37.06
21203;BME280;10759;51.982;9.232;2023-05-01T13:10:56;100095.97;;;19.78;37.80
21203;BME280;10759;51.982;9.232;2023-05-01T13:13:25;100114.75;;;19.92;37.31
21203;BME280;10759;51.982;9.232;2023-05-01T13:16:02;100121.78;;;20.17;36.21
21203;BME280;10759;51.982;9.232;2023-05-01T13:18:31;100084.31;;;20.10;36.17
21203;BME280;10759;51.982;9.232;2023-05-01T13:21:06;100111.25;;;20.35;36.85
21203;BME280;10759;51.982;9.232;2023-05-01T13:23:37;100051.47;;;19.90;36.50
21203;BME280;10759;51.982;9.232;2023-05-01T13:26:06;100129.81;;;20.19;36.39